createdAt,value
2022-12-07T00:01:36.296Z,99713.88
2022-12-07T00:04:40.500Z,99722.12
2022-12-07T00:07:43.515Z,99714.72
2022-12-07T00:10:47.015Z,99715.72
2022-12-07T00:14:01.763Z,99713.81
2022-12-07T00:17:05.041Z,99709.72
2022-12-07T00:20:08.547Z,99699.88
2022-12-07T00:23:12.014Z,99713.22
2022-12-07T00:26:24.289Z,99707.69
2022-12-07T00:29:28.157Z,99710.06
2022-12-07T00:32:31.075Z,99702.09
2022-12-07T00:35:34.934Z,99707.19
2022-12-07T00:38:38.709Z,99716.63
2022-12-07T00:41:42.256Z,99718.34
2022-12-07T00:44:45.352Z,99721.44
2022-12-07T00:47:48.928Z,99720.22
2022-12-07T00:50:52.519Z,99723.06
2022-12-07T00:53:55.851Z,99729.81
2022-12-07T00:56:59.149Z,99730.81
2022-12-07T01:00:02.875Z,99722.69
2022-12-07T01:03:08.092Z,99721.59
2022-12-07T01:06:16.570Z,99714.94
2022-12-07T01:09:19.753Z,99711.25
2022-12-07T01:12:24.718Z,99710.00
2022-12-07T01:15:27.727Z,99712.69
2022-12-07T01:18:34.106Z,99711.06
2022-12-07T01:21:38.936Z,99704.78
2022-12-07T01:24:44.140Z,99696.59
2022-12-07T01:27:47.188Z,99692.62
2022-12-07T01:31:05.217Z,99685.88
2022-12-07T01:34:11.733Z,99683.53
2022-12-07T01:37:14.962Z,99695.09
2022-12-07T01:40:17.958Z,99682.28
2022-12-07T01:43:21.779Z,99687.72
2022-12-07T01:46:24.689Z,99688.00
2022-12-07T01:49:35.980Z,99688.31
2022-12-07T01:52:39.874Z,99677.97
2022-12-07T01:55:46.240Z,99683.91
2022-12-07T01:58:50.535Z,99676.41
2022-12-07T02:01:55.855Z,99676.69
2022-12-07T02:05:01.139Z,99676.00
2022-12-07T02:08:04.516Z,99674.56
2022-12-07T02:11:08.947Z,99671.09
2022-12-07T02:14:13.006Z,99671.16
2022-12-07T02:17:24.989Z,99675.28
2022-12-07T02:20:36.565Z,99672.56
2022-12-07T02:24:00.842Z,99673.13
2022-12-07T02:27:22.909Z,99674.13
2022-12-07T02:30:29.885Z,99670.66
2022-12-07T02:33:37.665Z,99674.59
2022-12-07T02:36:44.903Z,99672.34
2022-12-07T02:39:54.594Z,99668.28
2022-12-07T02:43:14.005Z,99669.22
2022-12-07T02:46:29.344Z,99672.34
2022-12-07T02:49:33.928Z,99665.94
2022-12-07T02:52:36.960Z,99670.97
2022-12-07T02:55:42.838Z,99676.09
2022-12-07T02:59:15.354Z,99681.09
2022-12-07T03:02:27.548Z,99678.25
2022-12-07T03:05:36.347Z,99669.78
2022-12-07T03:08:50.180Z,99672.94
2022-12-07T03:12:00.976Z,99668.34
2022-12-07T03:15:13.347Z,99662.47
2022-12-07T03:18:19.166Z,99651.88
2022-12-07T03:21:35.326Z,99657.03
2022-12-07T03:24:43.503Z,99651.66
2022-12-07T03:28:03.235Z,99658.84
2022-12-07T03:31:31.467Z,99656.09
2022-12-07T03:34:43.951Z,99658.84
2022-12-07T03:38:03.753Z,99654.41
2022-12-07T03:41:11.296Z,99658.72
2022-12-07T03:44:15.956Z,99663.06
2022-12-07T03:47:25.216Z,99656.38
2022-12-07T03:50:38.531Z,99661.69
2022-12-07T03:53:49.163Z,99665.81
2022-12-07T03:56:54.622Z,99658.72
2022-12-07T04:00:01.611Z,99661.09
2022-12-07T04:03:15.160Z,99659.66
2022-12-07T04:06:18.543Z,99660.84
2022-12-07T04:09:21.855Z,99662.09
2022-12-07T04:12:25.342Z,99651.94
2022-12-07T04:15:28.375Z,99656.31
2022-12-07T04:18:31.606Z,99649.03
2022-12-07T04:21:34.570Z,99652.31
2022-12-07T04:24:37.856Z,99649.63
2022-12-07T04:27:40.587Z,99654.56
2022-12-07T04:30:43.803Z,99655.81
2022-12-07T04:33:48.214Z,99656.97
2022-12-07T04:36:52.178Z,99657.47
2022-12-07T04:39:56.071Z,99653.78
2022-12-07T04:42:59.337Z,99656.25
2022-12-07T04:46:02.664Z,99660.75
2022-12-07T04:49:06.241Z,99657.81
2022-12-07T04:52:09.950Z,99648.97
2022-12-07T04:55:13.376Z,99648.06
2022-12-07T04:58:16.389Z,99650.37
2022-12-07T05:01:21.701Z,99645.50
2022-12-07T05:04:24.811Z,99655.94
2022-12-07T05:07:29.714Z,99661.69
2022-12-07T05:10:34.087Z,99651.22
2022-12-07T05:13:37.823Z,99657.41
2022-12-07T05:16:42.591Z,99654.09
2022-12-07T05:19:45.880Z,99658.72
2022-12-07T05:22:48.786Z,99652.91
2022-12-07T05:25:52.410Z,99653.19
2022-12-07T05:28:56.910Z,99658.75
2022-12-07T05:32:00.539Z,99661.25
2022-12-07T05:35:04.103Z,99653.69
2022-12-07T05:38:07.461Z,99667.22
2022-12-07T05:41:34.658Z,99663.59
2022-12-07T05:44:37.948Z,99662.81
2022-12-07T05:47:41.845Z,99672.56
2022-12-07T05:50:45.086Z,99671.75
2022-12-07T05:53:48.125Z,99673.91
2022-12-07T05:56:51.605Z,99668.88
2022-12-07T05:59:54.593Z,99668.22
2022-12-07T06:02:58.053Z,99675.09
2022-12-07T06:06:02.987Z,99678.34
2022-12-07T06:09:06.479Z,99675.69
2022-12-07T06:12:31.189Z,99675.88
2022-12-07T06:15:34.350Z,99687.09
2022-12-07T06:18:38.309Z,99686.97
2022-12-07T06:21:41.515Z,99689.25
2022-12-07T06:24:44.992Z,99681.28
2022-12-07T06:27:48.003Z,99683.09
2022-12-07T06:31:07.282Z,99693.28
2022-12-07T06:34:18.655Z,99691.03
2022-12-07T06:37:22.170Z,99697.06
2022-12-07T06:40:25.115Z,99699.94
2022-12-07T06:43:28.597Z,99695.09
2022-12-07T06:46:33.076Z,99689.47
2022-12-07T06:49:36.440Z,99702.63
2022-12-07T06:52:40.089Z,99698.13
2022-12-07T06:55:43.546Z,99698.66
2022-12-07T06:58:46.507Z,99702.91
2022-12-07T07:01:49.932Z,99705.97
2022-12-07T07:04:52.984Z,99704.81
2022-12-07T07:08:21.312Z,99700.72
2022-12-07T07:11:19.654Z,99701.53
2022-12-07T07:14:24.314Z,99707.12
2022-12-07T07:17:27.401Z,99703.47
2022-12-07T07:20:31.281Z,99701.34
2022-12-07T07:23:34.361Z,99713.16
2022-12-07T07:26:37.712Z,99704.84
2022-12-07T07:29:40.704Z,99698.91
2022-12-07T07:32:44.013Z,99705.38
2022-12-07T07:35:47.031Z,99705.66
2022-12-07T07:38:50.601Z,99707.34
2022-12-07T07:41:53.615Z,99714.81
2022-12-07T07:45:00.563Z,99715.59
2022-12-07T07:48:03.551Z,99709.69
2022-12-07T07:51:08.645Z,99713.59
2022-12-07T07:54:12.812Z,99714.19
2022-12-07T07:57:18.155Z,99719.97
2022-12-07T08:00:21.515Z,99715.84
2022-12-07T08:03:24.756Z,99714.56
2022-12-07T08:06:32.219Z,99711.34
2022-12-07T08:09:36.064Z,99707.88
2022-12-07T08:13:01.368Z,99715.72
2022-12-07T08:16:09.995Z,99714.41
2022-12-07T08:19:13.314Z,99719.37
2022-12-07T08:22:16.888Z,99717.56
2022-12-07T08:25:20.196Z,99731.41
2022-12-07T08:28:24.584Z,99731.06
2022-12-07T08:31:29.007Z,99735.69
2022-12-07T08:34:32.561Z,99738.47
2022-12-07T08:37:35.662Z,99735.38
2022-12-07T08:40:38.937Z,99744.25
2022-12-07T08:43:42.266Z,99735.19
2022-12-07T08:46:49.161Z,99749.78
2022-12-07T08:49:54.017Z,99745.59
2022-12-07T08:52:59.230Z,99731.28
2022-12-07T08:56:02.906Z,99728.94
2022-12-07T08:59:06.985Z,99742.06
2022-12-07T09:02:10.117Z,99737.34
2022-12-07T09:05:18.212Z,99739.03
2022-12-07T09:08:23.229Z,99738.81
2022-12-07T09:11:28.841Z,99737.00
2022-12-07T09:14:33.074Z,99730.38
2022-12-07T09:17:38.472Z,99725.81
2022-12-07T09:20:41.493Z,99720.19
2022-12-07T09:23:45.359Z,99716.50
2022-12-07T09:26:48.279Z,99714.22
2022-12-07T09:29:52.622Z,99717.78
2022-12-07T09:32:57.108Z,99725.75
2022-12-07T09:36:00.407Z,99721.63
2022-12-07T09:39:05.791Z,99714.72
2022-12-07T09:42:12.198Z,99710.09
2022-12-07T09:45:28.606Z,99699.78
2022-12-07T09:48:34.247Z,99698.75
2022-12-07T09:51:37.032Z,99694.97
2022-12-07T09:54:45.988Z,99711.75
2022-12-07T09:57:49.491Z,99718.50
2022-12-07T10:01:08.560Z,99712.81
2022-12-07T10:04:16.599Z,99709.88
2022-12-07T10:07:20.315Z,99703.28
2022-12-07T10:10:26.963Z,99693.44
2022-12-07T10:13:38.137Z,99692.31
2022-12-07T10:16:42.979Z,99694.63
2022-12-07T10:19:47.022Z,99689.84
2022-12-07T10:23:00.873Z,99688.72
2022-12-07T10:26:34.003Z,99688.72
2022-12-07T10:29:39.107Z,99680.63
2022-12-07T10:32:43.481Z,99680.41
2022-12-07T10:35:46.706Z,99680.03
2022-12-07T10:38:54.381Z,99683.84
2022-12-07T10:42:04.723Z,99661.28
2022-12-07T10:45:17.706Z,99663.13
2022-12-07T10:48:31.786Z,99654.84
2022-12-07T10:51:57.195Z,99649.87
2022-12-07T10:55:22.333Z,99664.56
2022-12-07T10:58:43.700Z,99661.56
2022-12-07T11:02:22.309Z,99653.59
2022-12-07T11:05:25.987Z,99651.00
2022-12-07T11:09:00.486Z,99665.59
2022-12-07T11:12:15.580Z,99673.13
2022-12-07T11:15:24.817Z,99660.44
2022-12-07T11:18:33.804Z,99654.22
2022-12-07T11:21:45.173Z,99665.09
2022-12-07T11:24:59.813Z,99645.53
2022-12-07T11:28:12.297Z,99646.44
2022-12-07T11:31:29.400Z,99658.59
2022-12-07T11:34:51.701Z,99650.22
2022-12-07T11:38:00.591Z,99651.25
2022-12-07T11:41:14.937Z,99651.19
2022-12-07T11:44:40.110Z,99646.66
2022-12-07T11:48:12.515Z,99635.25
2022-12-07T11:51:17.553Z,99633.94
2022-12-07T11:54:24.948Z,99622.47
2022-12-07T11:57:53.538Z,99624.75
2022-12-07T12:01:13.532Z,99616.47
2022-12-07T12:04:39.970Z,99608.34
2022-12-07T12:11:33.364Z,99617.16
2022-12-07T12:15:01.315Z,99624.28
2022-12-07T12:18:27.046Z,99614.22
2022-12-07T12:21:31.238Z,99604.84
2022-12-07T12:24:38.252Z,99606.06
2022-12-07T12:27:41.384Z,99605.16
2022-12-07T12:30:44.878Z,99599.25
2022-12-07T12:33:50.914Z,99620.44
2022-12-07T12:36:54.442Z,99607.28
2022-12-07T12:40:16.806Z,99599.84
2022-12-07T12:43:53.780Z,99605.03
2022-12-07T12:47:00.919Z,99596.63
2022-12-07T12:50:18.333Z,99602.19
2022-12-07T12:53:21.023Z,99609.56
2022-12-07T12:56:27.683Z,99608.88
2022-12-07T12:59:32.792Z,99600.69
2022-12-07T13:03:00.213Z,99602.06
2022-12-07T13:06:21.244Z,99594.84
2022-12-07T13:09:30.138Z,99608.81
2022-12-07T13:12:33.142Z,99621.88
2022-12-07T13:15:39.411Z,99609.72
2022-12-07T13:18:42.542Z,99617.84
2022-12-07T13:21:46.093Z,99622.59
2022-12-07T13:24:49.078Z,99620.31
2022-12-07T13:28:00.975Z,99622.47
2022-12-07T13:31:19.739Z,99626.22
2022-12-07T13:34:44.922Z,99626.66
2022-12-07T13:37:48.469Z,99627.78
2022-12-07T13:41:03.171Z,99632.41
2022-12-07T13:44:14.468Z,99628.59
2022-12-07T13:47:26.968Z,99633.63
2022-12-07T13:50:32.294Z,99622.97
2022-12-07T13:53:47.983Z,99630.47
2022-12-07T13:56:53.244Z,99637.81
2022-12-07T13:59:56.464Z,99637.50
2022-12-07T14:03:05.602Z,99633.88
2022-12-07T14:06:26.454Z,99631.00
2022-12-07T14:09:30.131Z,99633.75
2022-12-07T14:12:34.736Z,99629.81
2022-12-07T14:15:37.789Z,99635.50
2022-12-07T14:18:43.004Z,99639.12
2022-12-07T14:21:47.435Z,99641.19
2022-12-07T14:24:51.194Z,99639.53
2022-12-07T14:27:59.629Z,99650.09
2022-12-07T14:31:04.976Z,99647.38
2022-12-07T14:34:14.106Z,99636.38
2022-12-07T14:37:17.663Z,99649.31
2022-12-07T14:40:26.180Z,99642.00
2022-12-07T14:43:30.789Z,99637.31
2022-12-07T14:46:33.966Z,99648.50
2022-12-07T14:49:39.511Z,99638.84
2022-12-07T14:56:09.468Z,99643.87
2022-12-07T14:59:13.352Z,99654.06
2022-12-07T15:02:17.020Z,99653.53
2022-12-07T15:05:21.104Z,99649.38
2022-12-07T15:08:24.611Z,99650.41
2022-12-07T15:11:27.705Z,99649.41
2022-12-07T15:14:31.022Z,99653.19
2022-12-07T15:17:34.073Z,99662.06
2022-12-07T15:20:38.897Z,99662.50
2022-12-07T15:23:42.082Z,99669.34
2022-12-07T15:26:47.103Z,99676.31
2022-12-07T15:29:51.294Z,99670.59
2022-12-07T15:32:55.675Z,99678.09
2022-12-07T15:36:00.775Z,99672.38
2022-12-07T15:39:19.951Z,99680.22
2022-12-07T15:42:22.862Z,99674.94
2022-12-07T15:45:26.195Z,99690.03
2022-12-07T15:48:29.998Z,99687.44
2022-12-07T15:51:34.779Z,99675.91
2022-12-07T15:54:37.753Z,99681.91
2022-12-07T15:57:42.383Z,99684.00
2022-12-07T16:00:45.668Z,99690.78
2022-12-07T16:03:49.246Z,99697.00
2022-12-07T16:06:52.376Z,99690.06
2022-12-07T16:09:55.787Z,99693.28
2022-12-07T16:12:58.875Z,99690.09
2022-12-07T16:16:08.496Z,99693.50
2022-12-07T16:19:12.175Z,99686.59
2022-12-07T16:22:15.916Z,99683.31
2022-12-07T16:25:19.423Z,99683.84
2022-12-07T16:28:22.628Z,99681.34
2022-12-07T16:31:27.843Z,99686.47
2022-12-07T16:34:31.167Z,99690.28
2022-12-07T16:37:34.126Z,99674.53
2022-12-07T16:40:37.306Z,99670.69
2022-12-07T16:43:40.691Z,99663.38
2022-12-07T16:46:45.532Z,99665.75
2022-12-07T16:49:49.098Z,99670.50
2022-12-07T16:52:52.762Z,99677.00
2022-12-07T16:55:55.981Z,99668.53
2022-12-07T16:59:00.109Z,99673.47
2022-12-07T17:02:04.126Z,99684.69
2022-12-07T17:05:07.844Z,99685.34
2022-12-07T17:08:13.253Z,99688.50
2022-12-07T17:11:24.196Z,99688.50
2022-12-07T17:14:45.928Z,99695.47
2022-12-07T17:17:59.706Z,99699.44
2022-12-07T17:21:05.701Z,99701.72
2022-12-07T17:24:11.128Z,99701.00
2022-12-07T17:27:14.702Z,99697.88
2022-12-07T17:30:21.263Z,99691.88
2022-12-07T17:33:24.686Z,99697.72
2022-12-07T17:36:30.418Z,99696.97
2022-12-07T17:39:34.057Z,99694.63
2022-12-07T17:42:38.244Z,99692.59
2022-12-07T17:45:41.632Z,99695.47
2022-12-07T17:48:46.445Z,99696.50
2022-12-07T17:52:08.793Z,99691.78
2022-12-07T17:55:12.350Z,99686.91
2022-12-07T17:58:15.648Z,99690.72
2022-12-07T18:01:23.613Z,99690.38
2022-12-07T18:04:27.511Z,99688.94
2022-12-07T18:07:31.202Z,99685.34
2022-12-07T18:10:36.422Z,99697.16
2022-12-07T18:13:42.517Z,99705.69
2022-12-07T18:16:46.908Z,99706.00
2022-12-07T18:19:51.087Z,99697.69
2022-12-07T18:22:55.652Z,99703.81
2022-12-07T18:25:59.147Z,99698.31
2022-12-07T18:29:02.507Z,99695.66
2022-12-07T18:32:06.691Z,99692.34
2022-12-07T18:35:10.316Z,99693.88
2022-12-07T18:38:15.776Z,99695.16
2022-12-07T18:41:21.001Z,99699.25
2022-12-07T18:44:25.694Z,99701.94
2022-12-07T18:47:29.470Z,99704.47
2022-12-07T18:50:33.242Z,99705.72
2022-12-07T18:53:37.433Z,99708.09
2022-12-07T18:56:42.223Z,99709.16
2022-12-07T18:59:48.116Z,99713.88
2022-12-07T19:02:54.153Z,99711.81
2022-12-07T19:05:59.718Z,99714.34
2022-12-07T19:09:05.581Z,99713.19
2022-12-07T19:12:14.618Z,99711.00
2022-12-07T19:15:18.333Z,99716.84
2022-12-07T19:18:22.409Z,99720.13
2022-12-07T19:21:27.227Z,99715.22
2022-12-07T19:24:32.985Z,99719.50
2022-12-07T19:27:38.204Z,99715.03
2022-12-07T19:30:43.913Z,99712.37
2022-12-07T19:33:49.499Z,99715.34
2022-12-07T19:36:55.184Z,99724.63
2022-12-07T19:40:00.755Z,99722.56
2022-12-07T19:43:06.343Z,99715.28
2022-12-07T19:46:25.818Z,99730.72
2022-12-07T19:49:32.897Z,99730.91
2022-12-07T19:52:38.728Z,99725.06
2022-12-07T19:55:45.418Z,99727.31
2022-12-07T19:58:57.148Z,99724.94
2022-12-07T20:02:02.398Z,99725.13
2022-12-07T20:05:08.507Z,99727.78
2022-12-07T20:08:12.419Z,99727.19
2022-12-07T20:11:37.988Z,99737.47
2022-12-07T20:14:41.991Z,99731.78
2022-12-07T20:17:49.398Z,99734.59
2022-12-07T20:20:58.439Z,99731.72
2022-12-07T20:24:05.735Z,99738.03
2022-12-07T20:27:10.654Z,99741.50
2022-12-07T20:30:15.416Z,99739.91
2022-12-07T20:33:21.730Z,99747.59
2022-12-07T20:36:31.783Z,99740.66
2022-12-07T20:39:38.879Z,99741.09
2022-12-07T20:42:43.791Z,99741.56
2022-12-07T20:45:49.605Z,99733.03
2022-12-07T20:48:55.953Z,99734.78
2022-12-07T20:52:00.328Z,99733.38
2022-12-07T20:55:06.301Z,99734.59
2022-12-07T20:58:09.703Z,99743.16
2022-12-07T21:01:13.308Z,99738.62
2022-12-07T21:04:18.472Z,99737.69
2022-12-07T21:07:23.021Z,99748.56
2022-12-07T21:10:26.092Z,99743.81
2022-12-07T21:13:29.924Z,99740.69
2022-12-07T21:16:33.449Z,99741.63
2022-12-07T21:19:37.613Z,99745.06
2022-12-07T21:22:40.884Z,99748.56
2022-12-07T21:25:44.339Z,99747.75
2022-12-07T21:28:48.272Z,99747.91
2022-12-07T21:31:52.634Z,99743.81
2022-12-07T21:34:55.763Z,99751.22
2022-12-07T21:37:59.141Z,99752.47
2022-12-07T21:41:12.090Z,99768.84
2022-12-07T21:44:16.194Z,99761.75
2022-12-07T21:47:19.219Z,99757.81
2022-12-07T21:50:22.486Z,99762.38
2022-12-07T21:53:25.379Z,99759.88
2022-12-07T21:56:37.165Z,99758.00
2022-12-07T21:59:40.153Z,99753.72
2022-12-07T22:02:43.445Z,99754.19
2022-12-07T22:05:46.806Z,99753.28
2022-12-07T22:08:50.506Z,99749.63
2022-12-07T22:11:53.690Z,99754.06
2022-12-07T22:15:10.216Z,99742.56
2022-12-07T22:18:13.822Z,99752.78
2022-12-07T22:21:16.764Z,99744.13
2022-12-07T22:24:20.002Z,99741.75
2022-12-07T22:27:23.014Z,99739.41
2022-12-07T22:30:26.392Z,99725.41
2022-12-07T22:33:29.594Z,99728.25
2022-12-07T22:36:33.036Z,99737.38
2022-12-07T22:39:36.058Z,99734.06
2022-12-07T22:42:39.343Z,99733.94
2022-12-07T22:45:42.394Z,99739.56
2022-12-07T22:48:47.191Z,99748.22
2022-12-07T22:51:50.248Z,99753.56
2022-12-07T22:54:54.429Z,99743.34
2022-12-07T22:57:59.268Z,99738.16
2022-12-07T23:01:09.404Z,99740.97
2022-12-07T23:04:12.390Z,99746.78
2022-12-07T23:07:17.042Z,99738.12
2022-12-07T23:10:22.706Z,99736.25
2022-12-07T23:13:38.597Z,99738.62
2022-12-07T23:16:44.252Z,99727.75
2022-12-07T23:19:54.114Z,99727.59
2022-12-07T23:22:59.004Z,99730.28
2022-12-07T23:26:07.860Z,99726.19
2022-12-07T23:29:15.694Z,99728.38
2022-12-07T23:32:21.019Z,99728.38
2022-12-07T23:35:24.033Z,99715.97
2022-12-07T23:38:27.521Z,99722.12
2022-12-07T23:41:31.150Z,99724.00
2022-12-07T23:44:34.506Z,99724.16
2022-12-07T23:47:37.531Z,99735.94
2022-12-07T23:50:41.184Z,99740.00
2022-12-07T23:53:48.274Z,99733.53
2022-12-07T23:56:51.569Z,99724.72
2022-12-07T23:59:54.557Z,99717.81
